createdAt,value
2018-02-17T15:52:17.984Z,1018.67
2018-02-17T15:53:17.920Z,1018.67
2018-02-17T15:55:10.836Z,1018.67
2018-02-17T15:56:10.771Z,1018.71
2018-02-17T15:58:03.693Z,1018.70
2018-02-17T15:59:03.663Z,1018.74
2018-02-17T16:00:56.531Z,1018.77
2018-02-17T16:01:56.497Z,1018.78
2018-02-17T16:03:49.415Z,1018.80
2018-02-17T16:04:49.427Z,1018.81
2018-02-17T16:06:42.264Z,1018.83
2018-02-17T16:07:42.229Z,1018.85
2018-02-17T16:09:35.100Z,1018.90
2018-02-17T16:10:35.092Z,1018.90
2018-02-17T16:12:27.999Z,1018.92
2018-02-17T16:13:27.955Z,1018.92
2018-02-17T16:15:20.837Z,1018.93
2018-02-17T16:16:20.813Z,1018.96
2018-02-17T16:18:13.800Z,1018.96
2018-02-17T16:19:13.673Z,1019.00
2018-02-17T16:21:06.561Z,1018.99
2018-02-17T16:22:06.535Z,1019.00
2018-02-17T16:23:59.447Z,1019.03
2018-02-17T16:24:59.408Z,1019.01
2018-02-17T16:25:59.400Z,1019.06
2018-02-17T16:26:59.437Z,1019.05
2018-02-17T16:27:59.402Z,1019.05
2018-02-17T16:28:59.439Z,1019.05
2018-02-17T16:29:59.386Z,1019.07
2018-02-17T16:30:59.383Z,1019.08
2018-02-17T16:31:59.395Z,1019.10
2018-02-17T16:32:59.451Z,1019.09
2018-02-17T16:33:59.361Z,1019.13
2018-02-17T16:34:59.354Z,1019.12
2018-02-17T16:35:59.355Z,1019.13
2018-02-17T16:36:59.343Z,1019.14
2018-02-17T16:37:59.340Z,1019.14
2018-02-17T16:38:59.419Z,1019.13
2018-02-17T16:39:59.328Z,1019.11
2018-02-17T16:40:59.336Z,1019.11
2018-02-17T16:41:59.349Z,1019.11
2018-02-17T16:42:59.316Z,1019.14
2018-02-17T16:43:59.336Z,1019.14
2018-02-17T16:44:59.308Z,1019.16
2018-02-17T16:45:59.306Z,1019.17
2018-02-17T16:46:59.430Z,1019.20
2018-02-17T16:47:59.317Z,1019.17
2018-02-17T16:48:59.294Z,1019.16
2018-02-17T16:49:59.330Z,1019.19
2018-02-17T16:50:59.273Z,1019.14
2018-02-17T16:51:59.269Z,1019.16
2018-02-17T16:52:59.427Z,1019.16
2018-02-17T16:53:59.261Z,1019.15
2018-02-17T16:54:59.257Z,1019.19
2018-02-17T16:55:59.271Z,1019.17
2018-02-17T16:56:59.245Z,1019.21
2018-02-17T16:57:59.262Z,1019.23
2018-02-17T16:58:59.246Z,1019.24
2018-02-17T16:59:59.235Z,1019.25
2018-02-17T17:00:59.234Z,1019.29
2018-02-17T17:01:59.264Z,1019.30
2018-02-17T17:02:59.210Z,1019.31
2018-02-17T17:03:59.209Z,1019.29
2018-02-17T17:04:59.213Z,1019.31
2018-02-17T17:05:59.210Z,1019.30
2018-02-17T17:06:59.214Z,1019.31
2018-02-17T17:07:59.205Z,1019.34
2018-02-17T17:08:59.196Z,1019.35
2018-02-17T17:09:59.199Z,1019.35
2018-02-17T17:10:59.180Z,1019.38
2018-02-17T17:11:59.180Z,1019.41
2018-02-17T17:12:59.198Z,1019.44
2018-02-17T17:13:59.175Z,1019.49
2018-02-17T17:14:59.172Z,1019.48
2018-02-17T17:15:59.167Z,1019.53
2018-02-17T17:16:59.179Z,1019.56
2018-02-17T17:17:59.162Z,1019.58
2018-02-17T17:18:59.143Z,1019.60
2018-02-17T17:19:59.160Z,1019.68
2018-02-17T17:20:59.165Z,1019.70
2018-02-17T17:21:59.143Z,1019.70
2018-02-17T17:22:59.160Z,1019.72
2018-02-17T17:23:59.142Z,1019.74
2018-02-17T17:24:59.112Z,1019.77
2018-02-17T17:25:59.122Z,1019.77
2018-02-17T17:26:59.125Z,1019.76
2018-02-17T17:27:59.127Z,1019.76
2018-02-17T17:28:59.114Z,1019.78
2018-02-17T17:29:59.090Z,1019.80
2018-02-17T17:30:59.103Z,1019.84
2018-02-17T17:31:59.090Z,1019.80
2018-02-17T17:32:59.087Z,1019.85
2018-02-17T17:33:59.090Z,1019.83
2018-02-17T17:34:59.092Z,1019.85
2018-02-17T17:35:59.078Z,1019.87
2018-02-17T17:36:59.077Z,1019.90
2018-02-17T17:37:59.078Z,1019.89
2018-02-17T17:38:59.075Z,1019.91
2018-02-17T17:39:59.055Z,1019.91
2018-02-17T17:40:59.039Z,1019.96
2018-02-17T17:41:59.079Z,1019.92
2018-02-17T17:42:59.042Z,1019.96
2018-02-17T17:43:59.052Z,1020.01
2018-02-17T17:44:59.035Z,1020.03
2018-02-17T17:45:59.052Z,1020.01
2018-02-17T17:46:59.035Z,1020.05
2018-02-17T17:47:59.047Z,1020.06
2018-02-17T17:48:59.027Z,1020.08
2018-02-17T17:49:59.032Z,1020.10
2018-02-17T17:50:59.015Z,1020.12
2018-02-17T17:51:59.014Z,1020.13
2018-02-17T17:52:59.004Z,1020.12
2018-02-17T17:53:58.997Z,1020.13
2018-02-17T17:54:58.992Z,1020.10
2018-02-17T17:55:58.996Z,1020.13
2018-02-17T17:56:59.021Z,1020.16
2018-02-17T17:57:58.969Z,1020.18
2018-02-17T17:58:59.064Z,1020.18
2018-02-17T17:59:58.982Z,1020.19
2018-02-17T18:00:58.966Z,1020.18
2018-02-17T18:01:58.954Z,1020.20
2018-02-17T18:02:59.002Z,1020.22
2018-02-17T18:03:58.946Z,1020.23
2018-02-17T18:04:58.943Z,1020.26
2018-02-17T18:05:58.945Z,1020.27
2018-02-17T18:06:58.935Z,1020.28
2018-02-17T18:07:58.939Z,1020.26
2018-02-17T18:08:58.960Z,1020.27
2018-02-17T18:09:58.940Z,1020.29
2018-02-17T18:10:58.981Z,1020.29
2018-02-17T18:11:58.918Z,1020.30
2018-02-17T18:12:58.903Z,1020.30
2018-02-17T18:13:58.903Z,1020.31
2018-02-17T18:14:58.907Z,1020.32
2018-02-17T18:15:58.901Z,1020.34
2018-02-17T18:16:58.906Z,1020.36
2018-02-17T18:17:58.915Z,1020.36
2018-02-17T18:18:58.894Z,1020.41
2018-02-17T18:19:58.892Z,1020.40
2018-02-17T18:20:58.913Z,1020.41
2018-02-17T18:21:58.872Z,1020.42
2018-02-17T18:22:58.882Z,1020.43
2018-02-17T18:23:58.868Z,1020.46
2018-02-17T18:24:58.879Z,1020.42
2018-02-17T18:25:58.859Z,1020.41
2018-02-17T18:26:58.853Z,1020.44
2018-02-17T18:27:58.864Z,1020.45
2018-02-17T18:28:58.855Z,1020.45
2018-02-17T18:29:58.847Z,1020.44
2018-02-17T18:30:58.827Z,1020.46
2018-02-17T18:31:58.830Z,1020.47
2018-02-17T18:32:58.845Z,1020.50
2018-02-17T18:33:58.833Z,1020.48
2018-02-17T18:34:58.825Z,1020.51
2018-02-17T18:35:58.802Z,1020.54
2018-02-17T18:36:58.810Z,1020.53
2018-02-17T18:37:58.825Z,1020.54
2018-02-17T18:38:58.803Z,1020.55
2018-02-17T18:39:58.787Z,1020.55
2018-02-17T18:40:58.796Z,1020.50
2018-02-17T18:41:58.786Z,1020.53
2018-02-17T18:42:58.791Z,1020.51
2018-02-17T18:43:58.787Z,1020.53
2018-02-17T18:44:58.792Z,1020.57
2018-02-17T18:45:58.797Z,1020.57
2018-02-17T18:46:58.778Z,1020.55
2018-02-17T18:47:58.769Z,1020.57
2018-02-17T18:48:58.753Z,1020.54
2018-02-17T18:49:58.754Z,1020.56
2018-02-17T18:50:58.771Z,1020.57
2018-02-17T18:51:58.758Z,1020.55
2018-02-17T18:52:58.788Z,1020.54
2018-02-17T18:53:58.795Z,1020.55
2018-02-17T18:54:58.727Z,1020.59
2018-02-17T18:55:58.721Z,1020.55
2018-02-17T18:56:58.734Z,1020.56
2018-02-17T18:57:58.714Z,1020.58
2018-02-17T18:58:58.712Z,1020.60
2018-02-17T18:59:58.727Z,1020.59
2018-02-17T19:00:58.710Z,1020.58
2018-02-17T19:01:58.704Z,1020.62
2018-02-17T19:02:58.696Z,1020.60
2018-02-17T19:03:58.694Z,1020.62
2018-02-17T19:04:58.694Z,1020.60
2018-02-17T19:05:58.678Z,1020.67
2018-02-17T19:06:58.701Z,1020.64
2018-02-17T19:07:58.676Z,1020.66
2018-02-17T19:08:58.691Z,1020.68
2018-02-17T19:09:58.703Z,1020.66
2018-02-17T19:10:58.648Z,1020.67
2018-02-17T19:11:58.692Z,1020.67
2018-02-17T19:12:58.644Z,1020.65
2018-02-17T19:13:58.672Z,1020.66
2018-02-17T19:14:58.647Z,1020.66
2018-02-17T19:15:58.651Z,1020.69
2018-02-17T19:16:58.655Z,1020.66
2018-02-17T19:17:58.633Z,1020.65
2018-02-17T19:18:58.652Z,1020.65
2018-02-17T19:19:58.621Z,1020.65
2018-02-17T19:20:58.620Z,1020.63
2018-02-17T19:21:58.660Z,1020.66
2018-02-17T19:22:58.628Z,1020.64
2018-02-17T19:23:58.628Z,1020.65
2018-02-17T19:24:58.610Z,1020.62
2018-02-17T19:25:58.604Z,1020.62
2018-02-17T19:26:58.597Z,1020.63
2018-02-17T19:27:58.600Z,1020.64
2018-02-17T19:28:58.649Z,1020.66
2018-02-17T19:29:58.567Z,1020.63
2018-02-17T19:30:58.633Z,1020.60
2018-02-17T19:31:58.575Z,1020.63
2018-02-17T19:32:58.557Z,1020.65
2018-02-17T19:33:58.561Z,1020.62
2018-02-17T19:34:58.580Z,1020.63
2018-02-17T19:35:58.579Z,1020.64
2018-02-17T19:36:58.539Z,1020.63
2018-02-17T19:37:58.554Z,1020.63
2018-02-17T19:38:58.573Z,1020.67
2018-02-17T19:39:58.539Z,1020.64
2018-02-17T19:40:58.561Z,1020.68
2018-02-17T19:41:58.537Z,1020.66
2018-02-17T19:42:58.538Z,1020.66
2018-02-17T19:43:58.538Z,1020.68
2018-02-17T19:44:58.514Z,1020.65
2018-02-17T19:45:58.508Z,1020.67
2018-02-17T19:46:58.504Z,1020.67
2018-02-17T19:47:58.496Z,1020.66
2018-02-17T19:48:58.513Z,1020.67
2018-02-17T19:49:58.496Z,1020.67
2018-02-17T19:50:58.501Z,1020.67
2018-02-17T19:51:58.494Z,1020.69
2018-02-17T19:52:58.477Z,1020.66
2018-02-17T19:53:58.508Z,1020.68
2018-02-17T19:54:58.463Z,1020.69
2018-02-17T19:55:58.452Z,1020.72
2018-02-17T19:56:58.504Z,1020.74
2018-02-17T19:57:58.480Z,1020.71
2018-02-17T19:58:58.451Z,1020.78
2018-02-17T19:59:58.455Z,1020.78
2018-02-17T20:00:58.448Z,1020.80
2018-02-17T20:01:58.442Z,1020.83
2018-02-17T20:02:58.447Z,1020.82
2018-02-17T20:03:58.443Z,1020.83
2018-02-17T20:04:58.467Z,1020.86
2018-02-17T20:05:58.444Z,1020.89
2018-02-17T20:06:58.449Z,1020.86
2018-02-17T20:07:58.458Z,1020.88
2018-02-17T20:08:58.463Z,1020.92
2018-02-17T20:09:58.398Z,1020.91
2018-02-17T20:10:58.472Z,1020.92
2018-02-17T20:11:58.395Z,1020.95
2018-02-17T20:12:58.405Z,1020.96
2018-02-17T20:13:58.392Z,1020.97
2018-02-17T20:14:58.370Z,1020.99
2018-02-17T20:15:58.389Z,1020.94
2018-02-17T20:16:58.400Z,1020.94
2018-02-17T20:17:58.387Z,1020.95
2018-02-17T20:18:58.369Z,1020.98
2018-02-17T20:19:58.397Z,1020.98
2018-02-17T20:20:58.367Z,1020.97
2018-02-17T20:21:58.356Z,1020.98
2018-02-17T20:22:58.370Z,1020.96
2018-02-17T20:23:58.344Z,1020.97
2018-02-17T20:24:58.361Z,1021.00
2018-02-17T20:25:58.330Z,1021.00
2018-02-17T20:26:58.362Z,1021.04
2018-02-17T20:27:58.322Z,1021.03
2018-02-17T20:28:58.330Z,1021.06
2018-02-17T20:29:58.337Z,1021.06
2018-02-17T20:30:58.328Z,1021.06
2018-02-17T20:31:58.307Z,1021.05
2018-02-17T20:32:58.298Z,1021.04
2018-02-17T20:33:58.302Z,1021.07
2018-02-17T20:34:58.301Z,1021.07
2018-02-17T20:35:58.316Z,1021.12
2018-02-17T20:36:58.283Z,1021.13
2018-02-17T20:37:58.306Z,1021.13
2018-02-17T20:38:58.274Z,1021.16
2018-02-17T20:39:58.275Z,1021.18
2018-02-17T20:40:58.274Z,1021.17
2018-02-17T20:41:58.264Z,1021.15
2018-02-17T20:42:58.272Z,1021.19
2018-02-17T20:43:58.257Z,1021.23
2018-02-17T20:44:58.253Z,1021.28
2018-02-17T20:45:58.249Z,1021.29
2018-02-17T20:46:58.267Z,1021.27
2018-02-17T20:47:58.257Z,1021.31
2018-02-17T20:48:58.249Z,1021.31
2018-02-17T20:49:58.230Z,1021.34
2018-02-17T20:50:58.264Z,1021.36
2018-02-17T20:51:58.235Z,1021.34
2018-02-17T20:52:58.216Z,1021.38
2018-02-17T20:53:58.212Z,1021.40
2018-02-17T20:54:58.220Z,1021.40
2018-02-17T20:55:58.210Z,1021.44
2018-02-17T20:56:58.206Z,1021.44
2018-02-17T20:57:58.251Z,1021.43
2018-02-17T20:58:58.205Z,1021.46
2018-02-17T20:59:58.203Z,1021.50
2018-02-17T21:00:58.236Z,1021.51
2018-02-17T21:01:58.226Z,1021.47
2018-02-17T21:02:58.210Z,1021.47
2018-02-17T21:03:58.188Z,1021.47
2018-02-17T21:04:58.187Z,1021.46
2018-02-17T21:05:58.185Z,1021.46
2018-02-17T21:06:58.184Z,1021.45
2018-02-17T21:07:58.202Z,1021.47
2018-02-17T21:08:58.147Z,1021.49
2018-02-17T21:09:58.173Z,1021.52
2018-02-17T21:10:58.144Z,1021.47
2018-02-17T21:11:58.135Z,1021.51
2018-02-17T21:12:58.143Z,1021.47
2018-02-17T21:13:58.122Z,1021.47
2018-02-17T21:14:58.138Z,1021.45
2018-02-17T21:15:58.121Z,1021.49
2018-02-17T21:16:58.101Z,1021.48
2018-02-17T21:17:58.095Z,1021.46
2018-02-17T21:18:58.102Z,1021.49
2018-02-17T21:19:58.093Z,1021.50
2018-02-17T21:20:58.098Z,1021.52
2018-02-17T21:21:58.106Z,1021.55
2018-02-17T21:22:58.090Z,1021.55
2018-02-17T21:23:58.088Z,1021.56
2018-02-17T21:24:58.088Z,1021.58
2018-02-17T21:25:58.093Z,1021.61
2018-02-17T21:26:58.068Z,1021.61
2018-02-17T21:27:58.058Z,1021.63
2018-02-17T21:28:58.089Z,1021.66
2018-02-17T21:29:58.056Z,1021.68
2018-02-17T21:30:58.053Z,1021.74
2018-02-17T21:31:58.055Z,1021.71
2018-02-17T21:32:58.039Z,1021.74
2018-02-17T21:33:58.047Z,1021.78
2018-02-17T21:34:58.034Z,1021.76
2018-02-17T21:35:58.015Z,1021.77
2018-02-17T21:36:58.010Z,1021.83
2018-02-17T21:37:58.002Z,1021.83
2018-02-17T21:38:58.004Z,1021.84
2018-02-17T21:39:58.015Z,1021.88
2018-02-17T21:40:58.009Z,1021.85
2018-02-17T21:41:57.986Z,1021.87
2018-02-17T21:42:57.992Z,1021.91
2018-02-17T21:43:58.014Z,1021.91
2018-02-17T21:44:57.994Z,1021.92
2018-02-17T21:45:57.979Z,1021.99
2018-02-17T21:46:58.007Z,1021.94
2018-02-17T21:47:57.963Z,1021.98
2018-02-17T21:48:57.965Z,1021.95
2018-02-17T21:49:57.947Z,1021.99
2018-02-17T21:50:57.954Z,1021.98
2018-02-17T21:51:57.945Z,1022.00
2018-02-17T21:52:57.943Z,1022.00
2018-02-17T21:53:57.927Z,1021.96
2018-02-17T21:54:57.930Z,1021.92
2018-02-17T21:55:57.928Z,1021.96
2018-02-17T21:56:57.915Z,1021.98
2018-02-17T21:57:57.931Z,1021.97
2018-02-17T21:58:57.923Z,1022.00
2018-02-17T21:59:57.903Z,1021.99
2018-02-17T22:00:57.953Z,1022.01
2018-02-17T22:01:57.920Z,1022.00
2018-02-17T22:02:57.925Z,1022.03
2018-02-17T22:03:57.901Z,1022.04
2018-02-17T22:04:57.889Z,1022.09
2018-02-17T22:05:57.928Z,1022.08
2018-02-17T22:06:57.890Z,1022.07
2018-02-17T22:07:57.884Z,1022.05
2018-02-17T22:08:57.868Z,1022.08
2018-02-17T22:09:57.852Z,1022.09
2018-02-17T22:10:57.873Z,1022.09
2018-02-17T22:11:57.862Z,1022.10
2018-02-17T22:12:57.844Z,1022.11
2018-02-17T22:13:57.850Z,1022.14
2018-02-17T22:14:57.826Z,1022.13
2018-02-17T22:15:57.842Z,1022.13
2018-02-17T22:16:57.842Z,1022.14
2018-02-17T22:17:57.825Z,1022.18
2018-02-17T22:18:57.815Z,1022.19
2018-02-17T22:19:57.814Z,1022.20
2018-02-17T22:20:57.821Z,1022.23
2018-02-17T22:21:57.797Z,1022.21
2018-02-17T22:22:57.805Z,1022.23
2018-02-17T22:23:57.791Z,1022.27
2018-02-17T22:24:57.792Z,1022.25
2018-02-17T22:25:57.796Z,1022.25
2018-02-17T22:26:57.788Z,1022.19
2018-02-17T22:27:57.771Z,1022.25
2018-02-17T22:28:57.770Z,1022.23
2018-02-17T22:29:57.760Z,1022.20
2018-02-17T22:30:57.775Z,1022.22
2018-02-17T22:31:57.777Z,1022.22
2018-02-17T22:32:57.750Z,1022.19
2018-02-17T22:33:57.747Z,1022.18
2018-02-17T22:34:57.745Z,1022.18
2018-02-17T22:35:57.756Z,1022.19
2018-02-17T22:36:57.741Z,1022.12
2018-02-17T22:37:57.732Z,1022.18
2018-02-17T22:38:57.720Z,1022.17
2018-02-17T22:39:57.717Z,1022.18
2018-02-17T22:40:57.711Z,1022.13
2018-02-17T22:41:57.705Z,1022.17
2018-02-17T22:42:57.708Z,1022.16
2018-02-17T22:43:57.696Z,1022.18
2018-02-17T22:44:57.691Z,1022.22
2018-02-17T22:45:57.693Z,1022.22
2018-02-17T22:46:57.686Z,1022.23
2018-02-17T22:47:57.690Z,1022.24
2018-02-17T22:48:57.682Z,1022.21
2018-02-17T22:49:57.682Z,1022.24
2018-02-17T22:50:57.660Z,1022.22
2018-02-17T22:51:57.653Z,1022.28
2018-02-17T22:52:57.669Z,1022.27
2018-02-17T22:53:57.651Z,1022.30
2018-02-17T22:54:57.640Z,1022.29
2018-02-17T22:55:57.637Z,1022.28
2018-02-17T22:56:57.640Z,1022.32
2018-02-17T22:57:57.626Z,1022.31
2018-02-17T22:58:57.628Z,1022.27
2018-02-17T22:59:57.618Z,1022.29
2018-02-17T23:00:57.613Z,1022.30
2018-02-17T23:01:57.615Z,1022.28
2018-02-17T23:02:57.612Z,1022.34
2018-02-17T23:03:57.599Z,1022.30
2018-02-17T23:04:57.592Z,1022.27
2018-02-17T23:05:57.582Z,1022.32
2018-02-17T23:06:57.600Z,1022.33
2018-02-17T23:07:57.579Z,1022.33
2018-02-17T23:08:57.581Z,1022.33
2018-02-17T23:09:57.570Z,1022.31
2018-02-17T23:10:57.558Z,1022.34
2018-02-17T23:11:57.565Z,1022.35
2018-02-17T23:12:57.552Z,1022.34
2018-02-17T23:13:57.561Z,1022.35
2018-02-17T23:14:57.547Z,1022.33
2018-02-17T23:15:57.544Z,1022.38
2018-02-17T23:16:57.532Z,1022.36
2018-02-17T23:17:57.523Z,1022.38
2018-02-17T23:18:57.535Z,1022.38
2018-02-17T23:19:57.515Z,1022.40
2018-02-17T23:20:57.516Z,1022.43
2018-02-17T23:21:57.512Z,1022.43
2018-02-17T23:22:57.512Z,1022.44
2018-02-17T23:23:57.498Z,1022.42
2018-02-17T23:24:57.497Z,1022.39
2018-02-17T23:25:57.480Z,1022.41
2018-02-17T23:26:57.478Z,1022.41
2018-02-17T23:27:57.502Z,1022.38
2018-02-17T23:28:57.476Z,1022.39
2018-02-17T23:29:57.472Z,1022.36
2018-02-17T23:30:57.462Z,1022.39
2018-02-17T23:31:57.461Z,1022.38
2018-02-17T23:32:57.454Z,1022.37
2018-02-17T23:33:57.446Z,1022.37
2018-02-17T23:34:57.452Z,1022.38
2018-02-17T23:35:57.448Z,1022.38
2018-02-17T23:36:57.437Z,1022.36
2018-02-17T23:37:57.432Z,1022.37
2018-02-17T23:38:57.417Z,1022.34
2018-02-17T23:39:57.433Z,1022.35
2018-02-17T23:40:57.417Z,1022.39
2018-02-17T23:41:57.409Z,1022.38
2018-02-17T23:42:57.395Z,1022.37
2018-02-17T23:43:57.398Z,1022.37
2018-02-17T23:44:57.397Z,1022.36
2018-02-17T23:45:57.409Z,1022.38
2018-02-17T23:46:57.393Z,1022.36
2018-02-17T23:47:57.387Z,1022.40
2018-02-17T23:48:57.372Z,1022.38
2018-02-17T23:49:57.369Z,1022.39
2018-02-17T23:50:57.358Z,1022.41
2018-02-17T23:51:57.361Z,1022.41
2018-02-17T23:52:57.346Z,1022.40
2018-02-17T23:53:57.341Z,1022.37
2018-02-17T23:54:57.337Z,1022.38
2018-02-17T23:55:57.338Z,1022.36
2018-02-17T23:56:57.333Z,1022.38
2018-02-17T23:57:57.319Z,1022.38
2018-02-17T23:58:57.331Z,1022.34
2018-02-17T23:59:57.315Z,1022.37
